createdAt,value
2023-04-10T00:00:08.693Z,1020.33
2023-04-10T00:05:08.860Z,1020.29
2023-04-10T00:10:08.913Z,1020.23
2023-04-10T00:15:08.916Z,1020.15
2023-04-10T00:20:09.009Z,1020.07
2023-04-10T00:25:08.077Z,1020.17
2023-04-10T00:30:08.089Z,1020.2
2023-04-10T00:35:08.197Z,1020.15
2023-04-10T00:40:08.216Z,1020.09
2023-04-10T00:45:08.326Z,1020.16
2023-04-10T00:50:08.386Z,1020.04
2023-04-10T00:55:08.422Z,1019.97
2023-04-10T01:00:08.450Z,1019.81
2023-04-10T01:05:08.496Z,1019.72
2023-04-10T01:10:08.546Z,1019.65
2023-04-10T01:15:08.613Z,1019.6
2023-04-10T01:20:08.651Z,1019.53
2023-04-10T01:25:08.761Z,1019.49
2023-04-10T01:30:08.819Z,1019.55
2023-04-10T01:35:08.868Z,1019.5
2023-04-10T01:40:09.141Z,1019.5
2023-04-10T01:45:08.226Z,1019.55
2023-04-10T01:50:08.299Z,1019.5
2023-04-10T01:55:08.356Z,1019.49
2023-04-10T02:00:08.496Z,1019.49
2023-04-10T02:05:08.643Z,1019.5
2023-04-10T02:10:08.761Z,1019.44
2023-04-10T02:15:08.831Z,1019.33
2023-04-10T02:20:08.901Z,1019.33
2023-04-10T02:25:08.980Z,1019.31
2023-04-10T02:30:08.036Z,1019.37
2023-04-10T02:35:08.039Z,1019.3
2023-04-10T02:40:08.076Z,1019.3
2023-04-10T02:45:08.180Z,1019.26
2023-04-10T02:50:08.477Z,1019.27
2023-04-10T02:55:08.528Z,1019.18
2023-04-10T03:00:08.596Z,1019.18
2023-04-10T03:05:08.653Z,1018.96
2023-04-10T03:10:08.698Z,1018.9
2023-04-10T03:15:08.751Z,1018.95
2023-04-10T03:20:08.863Z,1018.95
2023-04-10T03:25:08.904Z,1018.91
2023-04-10T03:30:08.919Z,1018.86
2023-04-10T03:35:08.990Z,1018.79
2023-04-10T03:40:08.033Z,1018.79
2023-04-10T03:45:08.115Z,1018.63
2023-04-10T03:50:09.046Z,1018.63
2023-04-10T03:55:08.084Z,1018.74
2023-04-10T04:00:08.156Z,1018.74
2023-04-10T04:05:02.418Z,1018.72
2023-04-10T04:10:02.765Z,1018.62
2023-04-10T04:15:03.260Z,1018.62
2023-04-10T04:20:02.613Z,1018.58
2023-04-10T04:25:02.923Z,1018.58
2023-04-10T04:30:03.406Z,1018.58
2023-04-10T04:35:02.937Z,1018.41
2023-04-10T04:40:02.274Z,1018.37
2023-04-10T04:45:02.559Z,1018.35
2023-04-10T04:50:02.709Z,1018.35
2023-04-10T04:55:02.836Z,1018.4
2023-04-10T05:00:03.064Z,1018.43
2023-04-10T05:05:02.262Z,1018.37
2023-04-10T05:10:02.379Z,1018.44
2023-04-10T05:15:02.534Z,1018.4
2023-04-10T05:20:02.772Z,1018.34
2023-04-10T05:25:02.996Z,1018.28
2023-04-10T05:30:02.190Z,1018.27
2023-04-10T05:35:02.339Z,1018.33
2023-04-10T05:40:02.667Z,1018.22
2023-04-10T05:45:03.167Z,1018.22
2023-04-10T05:50:02.381Z,1018.28
2023-04-10T05:55:02.709Z,1018.21
2023-04-10T06:00:02.976Z,1018.2
2023-04-10T06:05:02.144Z,1018.23
2023-04-10T06:10:02.412Z,1018.2
2023-04-10T06:15:02.650Z,1018.23
2023-04-10T06:20:02.892Z,1018.22
2023-04-10T06:25:03.157Z,1018.19
2023-04-10T06:30:02.317Z,1018.19
2023-04-10T06:35:02.647Z,1018.03
2023-04-10T06:40:02.941Z,1017.96
2023-04-10T06:45:02.404Z,1017.87
2023-04-10T06:50:02.554Z,1017.83
2023-04-10T06:55:02.794Z,1017.75
2023-04-10T07:00:03.189Z,1017.66
2023-04-10T07:05:02.430Z,1017.66
2023-04-10T07:10:02.607Z,1017.63
2023-04-10T07:15:02.780Z,1017.53
2023-04-10T07:20:03.011Z,1017.45
2023-04-10T07:25:02.209Z,1017.45
2023-04-10T07:30:02.421Z,1017.38
2023-04-10T07:35:02.631Z,1017.23
2023-04-10T07:40:02.923Z,1017.18
2023-04-10T07:45:02.084Z,1017.03
2023-04-10T07:50:02.131Z,1016.94
2023-04-10T07:55:02.285Z,1016.85
2023-04-10T08:00:02.406Z,1016.75
2023-04-10T08:05:02.692Z,1016.71
2023-04-10T08:10:02.892Z,1016.52
2023-04-10T08:15:03.055Z,1016.56
2023-04-10T08:20:02.245Z,1016.56
2023-04-10T08:25:02.468Z,1016.44
2023-04-10T08:30:02.668Z,1016.37
2023-04-10T08:35:02.780Z,1016.4
2023-04-10T08:40:02.954Z,1016.31
2023-04-10T08:45:02.229Z,1016.3
2023-04-10T08:50:02.364Z,1016.23
2023-04-10T08:55:02.498Z,1016.3
2023-04-10T09:00:16.028Z,1016.28
2023-04-10T09:05:02.483Z,1016.32
2023-04-10T09:10:02.795Z,1016.26
2023-04-10T09:15:02.966Z,1016.17
2023-04-10T09:20:02.149Z,1016.23
2023-04-10T09:25:02.358Z,1016.06
2023-04-10T09:30:02.720Z,1015.93
2023-04-10T09:35:02.904Z,1015.93
2023-04-10T09:40:03.193Z,1016.01
2023-04-10T09:45:02.372Z,1015.86
2023-04-10T09:50:02.597Z,1015.9
2023-04-10T09:55:02.818Z,1015.84
2023-04-10T10:00:03.067Z,1015.86
2023-04-10T10:05:02.407Z,1015.65
2023-04-10T10:10:02.616Z,1015.6
2023-04-10T10:15:02.842Z,1015.6
2023-04-10T10:20:03.326Z,1015.32
2023-04-10T10:25:02.465Z,1015.11
2023-04-10T10:30:08.395Z,1015.06
2023-04-10T10:35:02.459Z,1014.92
2023-04-10T10:40:02.765Z,1014.8
2023-04-10T10:45:03.025Z,1014.76
2023-04-10T10:50:02.203Z,1014.76
2023-04-10T10:55:02.704Z,1014.54
2023-04-10T11:00:02.970Z,1014.56
2023-04-10T11:05:02.322Z,1014.52
2023-04-10T11:10:02.482Z,1014.4
2023-04-10T11:15:02.715Z,1014.31
2023-04-10T11:20:02.898Z,1014.2
2023-04-10T11:25:03.082Z,1014.05
2023-04-10T11:30:02.315Z,1014.0
2023-04-10T11:35:04.836Z,1013.86
2023-04-10T11:40:02.330Z,1013.84
2023-04-10T11:45:02.593Z,1013.82
2023-04-10T11:50:02.789Z,1013.7
2023-04-10T11:55:03.061Z,1013.64
2023-04-10T12:00:02.229Z,1013.52
2023-04-10T12:05:02.545Z,1013.61
2023-04-10T12:10:02.824Z,1013.45
2023-04-10T12:15:03.182Z,1013.34
2023-04-10T12:20:02.356Z,1013.18
2023-04-10T12:25:02.590Z,1013.18
2023-04-10T12:30:02.791Z,1013.18
2023-04-10T12:35:03.236Z,1013.17
2023-04-10T12:40:02.504Z,1013.06
2023-04-10T12:45:02.717Z,1013.01
2023-04-10T12:50:02.948Z,1012.88
2023-04-10T12:55:02.132Z,1012.84
2023-04-10T13:00:02.457Z,1012.69
2023-04-10T13:05:02.680Z,1012.76
2023-04-10T13:10:02.839Z,1012.7
2023-04-10T13:15:03.206Z,1012.53
2023-04-10T13:20:02.382Z,1012.31
2023-04-10T13:25:02.564Z,1012.15
2023-04-10T13:30:02.833Z,1012.15
2023-04-10T13:35:03.056Z,1011.96
2023-04-10T13:40:02.279Z,1011.86
2023-04-10T13:45:02.394Z,1011.73
2023-04-10T13:50:02.515Z,1011.73
2023-04-10T13:55:02.630Z,1011.69
2023-04-10T14:00:03.015Z,1011.5
2023-04-10T14:05:02.211Z,1011.27
2023-04-10T14:10:02.406Z,1011.15
2023-04-10T14:15:02.651Z,1011.16
2023-04-10T14:20:02.799Z,1010.94
2023-04-10T14:25:12.354Z,1010.74
2023-04-10T14:30:02.985Z,1010.67
2023-04-10T14:35:02.089Z,1010.52
2023-04-10T14:40:02.244Z,1010.49
2023-04-10T14:45:02.512Z,1010.36
2023-04-10T14:50:02.701Z,1010.4
2023-04-10T14:55:02.998Z,1010.33
2023-04-10T15:00:02.288Z,1010.19
2023-04-10T15:05:02.493Z,1010.17
2023-04-10T15:10:02.687Z,1010.02
2023-04-10T15:15:02.928Z,1010.03
2023-04-10T15:20:02.215Z,1009.95
2023-04-10T15:25:02.394Z,1009.88
2023-04-10T15:30:02.730Z,1009.83
2023-04-10T15:35:02.915Z,1009.72
2023-04-10T15:40:03.332Z,1009.63
2023-04-10T15:45:02.681Z,1009.58
2023-04-10T15:50:02.942Z,1009.61
2023-04-10T15:55:02.131Z,1009.51
2023-04-10T16:00:02.470Z,1009.49
2023-04-10T16:05:03.045Z,1009.49
2023-04-10T16:10:02.423Z,1009.35
2023-04-10T16:15:02.621Z,1009.38
2023-04-10T16:20:02.825Z,1009.35
2023-04-10T16:30:05.108Z,1009.32
2023-04-10T16:35:02.374Z,1009.31
2023-04-10T16:40:02.553Z,1009.0
2023-04-10T16:45:02.752Z,1009.0
2023-04-10T16:50:02.944Z,1009.0
2023-04-10T16:55:02.246Z,1008.71
2023-04-10T17:00:02.557Z,1008.68
2023-04-10T17:05:02.745Z,1008.51
2023-04-10T17:10:02.929Z,1008.38
2023-04-10T17:15:03.552Z,1008.36
2023-04-10T17:20:02.876Z,1008.31
2023-04-10T17:25:03.130Z,1008.31
2023-04-10T17:30:02.487Z,1008.07
2023-04-10T17:35:02.862Z,1008.14
2023-04-10T17:40:03.047Z,1008.25
2023-04-10T17:45:02.385Z,1008.38
2023-04-10T17:50:02.664Z,1008.56
2023-04-10T17:55:03.025Z,1008.62
2023-04-10T18:00:02.255Z,1008.7
2023-04-10T18:05:02.865Z,1008.77
2023-04-10T18:10:03.154Z,1008.95
2023-04-10T18:15:02.427Z,1009.11
2023-04-10T18:20:02.553Z,1009.09
2023-04-10T18:25:02.776Z,1009.04
2023-04-10T18:30:02.969Z,1008.98
2023-04-10T18:35:02.171Z,1009.06
2023-04-10T18:40:09.879Z,1009.06
2023-04-10T18:45:02.930Z,1009.06
2023-04-10T18:50:02.381Z,1008.82
2023-04-10T18:55:02.610Z,1008.69
2023-04-10T19:00:02.921Z,1008.51
2023-04-10T19:05:03.207Z,1008.59
2023-04-10T19:10:02.430Z,1008.51
2023-04-10T19:15:02.685Z,1008.25
2023-04-10T19:20:02.947Z,1008.21
2023-04-10T19:25:02.186Z,1008.38
2023-04-10T19:30:02.353Z,1008.08
2023-04-10T19:35:02.524Z,1008.08
2023-04-10T19:40:02.819Z,1008.5
2023-04-10T19:45:03.093Z,1008.31
2023-04-10T19:50:02.268Z,1008.05
2023-04-10T19:55:02.544Z,1007.94
2023-04-10T20:00:02.780Z,1007.94
2023-04-10T20:05:03.116Z,1007.75
2023-04-10T20:10:02.448Z,1007.7
2023-04-10T20:15:02.702Z,1007.84
2023-04-10T20:20:03.179Z,1007.33
2023-04-10T20:25:02.334Z,1007.43
2023-04-10T20:30:02.533Z,1007.24
2023-04-10T20:35:03.005Z,1007.37
2023-04-10T20:40:02.191Z,1007.65
2023-04-10T20:45:02.437Z,1007.47
2023-04-10T20:50:02.696Z,1007.59
2023-04-10T20:55:02.903Z,1007.42
2023-04-10T21:00:03.281Z,1007.64
2023-04-10T21:05:15.278Z,1007.43
2023-04-10T21:10:08.330Z,1007.56
2023-04-10T21:15:08.402Z,1007.56
2023-04-10T21:20:08.449Z,1007.56
2023-04-10T21:25:08.488Z,1007.41
2023-04-10T21:30:08.558Z,1007.35
2023-04-10T21:35:08.693Z,1007.52
2023-04-10T21:40:08.751Z,1007.56
2023-04-10T21:45:08.842Z,1007.39
2023-04-10T21:50:08.877Z,1007.4
2023-04-10T21:55:08.911Z,1007.4
2023-04-10T22:00:08.970Z,1007.4
2023-04-10T22:05:08.017Z,1007.21
2023-04-10T22:10:08.044Z,1007.21
2023-04-10T22:15:08.129Z,1007.3
2023-04-10T22:20:08.247Z,1007.36
2023-04-10T22:25:08.286Z,1007.24
2023-04-10T22:30:08.313Z,1007.13
2023-04-10T22:35:08.339Z,1007.2
2023-04-10T22:40:08.401Z,1007.2
2023-04-10T22:45:08.448Z,1007.22
2023-04-10T22:50:08.500Z,1007.01
2023-04-10T22:55:08.538Z,1007.09
2023-04-10T23:01:13.604Z,1007.06
2023-04-10T23:05:08.646Z,1006.9
2023-04-10T23:10:09.159Z,1006.85
2023-04-10T23:15:08.178Z,1006.57
2023-04-10T23:20:08.237Z,1006.51
2023-04-10T23:25:08.303Z,1006.57
2023-04-10T23:30:08.390Z,1006.66
2023-04-10T23:35:08.515Z,1006.66
2023-04-10T23:40:08.605Z,1006.62
2023-04-10T23:45:08.781Z,1006.72
2023-04-10T23:50:08.848Z,1006.71
2023-04-10T23:55:08.859Z,1006.7
